AirNav   Everest Fuels
 
 796 users online  

0WI9 Mc Manus Hoonch-Na-Shee-Kaw Airport
Oregon, Wisconsin, USA

GOING TO OREGON?


FAA INFORMATION EFFECTIVE 26 JANUARY 2023

Location

FAA Identifier: 0WI9
Lat/Long: 42-55-53.0020N 089-20-19.4250W
42-55.883367N 089-20.323750W
42.9313894,-89.3387292
(estimated)
Elevation: 931 ft. / 283.8 m (surveyed)
Variation: 00E (1985)
From city: 2 miles E of OREGON, WI
Time zone: UTC -6 (UTC -5 during Daylight Saving Time)
Zip code: 53575

Airport Operations

Airport use: Private use. Permission required prior to landing
Activation date: 07/1964
Control tower: no
ARTCC: CHICAGO CENTER
FSS: GREEN BAY FLIGHT SERVICE STATION
Attendance: UNATNDD
Wind indicator: yes
Segmented circle: no

Airport Communications

WX ASOS at MSN (13 nm N): PHONE 608-249-0615
WX AWOS-3 at C29 (14 nm NW): 118.675 (608-833-1686)
  • MULTICOM 122.750.

Nearby radio navigation aids

VOR radial/distance  VOR name  Freq  Var
MSNr177/12.8MADISON VORTAC108.6003E
JVLr332/24.7JANESVILLE VOR/DME114.3003E

 
NDB name  Hdg/Dist  Freq  Var  ID
ROCK RIVER243/30.637101WRYV .-. -.-- ...-

Airport Services

Airframe service: NONE
Powerplant service: NONE

Runway Information

Runway 18/36

Dimensions: 2600 x 70 ft. / 792 x 21 m
Surface: turf
RUNWAY 18  RUNWAY 36
Traffic pattern: leftleft
Obstructions: treespline

Airport Ownership and Management from official FAA records

Ownership: Privately-owned
Owner: JACK MC MANUS
PO BOX 200
OREGON, WI 53575
Phone 608-257-7103
Manager: JACK MC MANUS
PO BOX 200
OREGON, WI 53575
Phone 608-257-7103

Airport Operational Statistics

Aircraft based on the field: 4
Single engine airplanes: 4
    

Additional Remarks

A42 REFLECTORS.
FOR CD CTC CHICAGO ARTCC AT 630-906-8921.

Instrument Procedures

There are no published instrument procedures at 0WI9.

Some nearby airports with instrument procedures:

87Y - Blackhawk Airfield (12 nm NE)
KMSN - Dane County Regional Airport-Truax Field (13 nm N)
C29 - Middleton Municipal Airport - Morey Field (14 nm NW)
KEFT - Monroe Municipal Airport (22 nm SW)
KJVL - Southern Wisconsin Regional Airport (23 nm SE)
 
Loc | Ops | Rwys | IFR | FBO | Links
Com | Nav | Svcs | Stats | Notes
Area around 0WI9 (Mc Manus Hoonch-Na-Shee-Kaw Airport)
 
Road maps at: MapQuest Bing Google
 
Aerial photo
No photo
 
Sectional chart

 
Airport distance calculator
Flying to Mc Manus Hoonch-Na-Shee-Kaw Airport? Find the distance to fly.

From to 0WI9

Sunrise and sunset
Times for 06-Feb-2023
 Local
(UTC-6)
 Zulu
(UTC)
Morning civil twilight06:3812:38
Sunrise07:0813:08
Sunset17:1523:15
Evening civil twilight17:4523:45

Current date and time
Zulu (UTC)  07-Feb-2023 05:12:52
Local (UTC-6)  06-Feb-2023 23:12:52
 
METAR
KMSN 
12nm N 
070453Z 17018G26KT 10SM OVC039 05/00 A2965 RMK AO2 PK WND 16038/0402 RAB24E34 SLP048 LAST P0000 T00500000
KC29 
14nm NW 
070455Z AUTO 18015G22KT 10SM SCT042 SCT047 OVC060 06/01 A2964 RMK AO1 T00570007
KEFT 
23nm SW 
070455Z AUTO 17018G23KT 10SM BKN036 OVC043 04/00 A2965 RMK AO2 T00400003
KJVL 
24nm SE 
070455Z AUTO 18018G28KT 10SM OVC034 06/00 A2968 RMK AO2
TAF
KMSN 
12nm N 
070317Z 0703/0724 17018G27KT P6SM VCSH SCT030 OVC035 WS020/19055KT FM070500 19015G24KT P6SM -RA SCT012 BKN030 WS020/21050KT FM071000 26014G22KT P6SM BKN010 OVC029 FM072100 28012KT P6SM SCT029 OVC035
NOTAMs
Click for the latest NOTAMs
NOTAMs are issued by the DoD/FAA and will open in a separate window not controlled by AirNav.

 

 
 

Would you like to see your business listed on this page?

 If your business provides an interesting product or service to pilots, flight crews, aircraft, or users of the Mc Manus Hoonch-Na-Shee-Kaw Airport, you should consider listing it here.  To start the listing process, click on the button below
 
Add a business
 

Other Pages about Mc Manus Hoonch-Na-Shee-Kaw Airport

Update a link
 
Copyright © AirNav, LLC. All rights reserved. Privacy Policy  Contact